Time;durP1;ratioP1;P1;durP2;ratioP2;P2;SDS_P1;SDS_P2;PMS_P1;PMS_P2;Temp;Humidity;BMP_temperature;BMP_pressure;BME280_temperature;BME280_humidity;BME280_pressure;Samples;Min_cycle;Max_cycle;Signal;HPM_P1;HPM_P2
2022/09/13 00:04:01;;;;;;;0.80;0.80;;;;;;;;;;10403063;28;20220;-75
2022/09/13 00:09:02;;;;;;;0.50;0.50;;;;;;;;;;10398403;28;20227;-75
2022/09/13 00:14:03;;;;;;;0.90;0.38;;;;;;;;;;10402326;28;20222;-75
2022/09/13 00:19:04;;;;;;;0.38;0.28;;;;;;;;;;10389028;28;20211;-76
2022/09/13 00:24:05;;;;;;;0.55;0.55;;;;;;;;;;10408160;28;20220;-76
2022/09/13 00:29:06;;;;;;;0.50;0.50;;;;;;;;;;10411790;28;20207;-76
2022/09/13 00:34:07;;;;;;;0.47;0.47;;;;;;;;;;10406898;28;21004;-74
2022/09/13 00:39:09;;;;;;;0.88;0.55;;;;;;;;;;10398610;28;20331;-76
2022/09/13 00:44:29;;;;;;;1.55;0.75;;;;;;;;;;10408926;28;20218;-75
2022/09/13 00:49:41;;;;;;;2.08;1.02;;;;;;;;;;10405287;28;22001;-75
2022/09/13 00:54:45;;;;;;;3.85;0.70;;;;;;;;;;10402021;28;20234;-76
2022/09/13 00:59:49;;;;;;;0.40;0.40;;;;;;;;;;10407350;28;20226;-77
2022/09/13 01:04:50;;;;;;;0.88;0.63;;;;;;;;;;10385955;28;20310;-75
2022/09/13 01:09:52;;;;;;;0.52;0.52;;;;;;;;;;10412448;28;20234;-76
2022/09/13 01:14:55;;;;;;;0.88;0.88;;;;;;;;;;10409052;28;20217;-76
2022/09/13 01:19:56;;;;;;;0.28;0.28;;;;;;;;;;10387010;28;20199;-76
2022/09/13 01:24:57;;;;;;;0.22;0.22;;;;;;;;;;10372471;28;20219;-75
2022/09/13 01:29:58;;;;;;;0.88;0.88;;;;;;;;;;10397893;28;20219;-76
2022/09/13 01:35:18;;;;;;;6.10;0.57;;;;;;;;;;10404024;28;20313;-76
2022/09/13 01:40:31;;;;;;;0.47;0.47;;;;;;;;;;10409222;28;20217;-75
2022/09/13 01:45:39;;;;;;;0.17;0.17;;;;;;;;;;10399431;28;20222;-76
2022/09/13 01:50:47;;;;;;;0.28;0.28;;;;;;;;;;10374965;28;20250;-76
2022/09/13 01:55:52;;;;;;;0.80;0.80;;;;;;;;;;10392478;28;20242;-75
2022/09/13 02:01:06;;;;;;;0.60;0.60;;;;;;;;;;10382936;28;20210;-75
2022/09/13 02:06:13;;;;;;;1.73;0.45;;;;;;;;;;10399970;28;20215;-75
2022/09/13 02:11:16;;;;;;;3.35;0.43;;;;;;;;;;10394156;28;20272;-75
2022/09/13 02:16:22;;;;;;;0.70;0.70;;;;;;;;;;10375321;28;20230;-76
2022/09/13 02:21:27;;;;;;;0.45;0.45;;;;;;;;;;10373349;28;20211;-75
2022/09/13 02:26:30;;;;;;;0.43;0.38;;;;;;;;;;10406803;28;20223;-76
2022/09/13 02:31:35;;;;;;;0.10;0.10;;;;;;;;;;10384387;28;20915;-77
2022/09/13 02:36:39;;;;;;;0.65;0.65;;;;;;;;;;10406732;28;20346;-76
2022/09/13 02:41:58;;;;;;;0.15;0.15;;;;;;;;;;10397521;28;20215;-76
2022/09/13 02:47:05;;;;;;;0.73;0.73;;;;;;;;;;10396058;28;20219;-76
2022/09/13 02:52:12;;;;;;;0.45;0.45;;;;;;;;;;10401202;28;20211;-76
2022/09/13 02:57:19;;;;;;;0.57;0.57;;;;;;;;;;10402971;28;20248;-75
2022/09/13 03:02:22;;;;;;;0.10;0.10;;;;;;;;;;10366899;28;20222;-77
2022/09/13 03:07:23;;;;;;;0.40;0.30;;;;;;;;;;10371757;28;20231;-74
2022/09/13 03:12:39;;;;;;;0.60;0.45;;;;;;;;;;10370903;28;20215;-77
2022/09/13 03:17:40;;;;;;;4.47;0.43;;;;;;;;;;10407607;28;20227;-77
2022/09/13 03:22:49;;;;;;;0.45;0.45;;;;;;;;;;10405921;28;20223;-77
2022/09/13 03:28:09;;;;;;;0.60;0.60;;;;;;;;;;10376710;28;20727;-77
2022/09/13 03:33:10;;;;;;;1.13;0.60;;;;;;;;;;10375230;28;20218;-77
2022/09/13 03:38:11;;;;;;;0.28;0.10;;;;;;;;;;10401721;28;20218;-76
2022/09/13 03:43:15;;;;;;;2.45;0.57;;;;;;;;;;10401674;28;20203;-76
2022/09/13 03:48:17;;;;;;;0.60;0.60;;;;;;;;;;10400409;28;20319;-77
2022/09/13 03:53:30;;;;;;;0.10;0.10;;;;;;;;;;10405004;28;20285;-76
2022/09/13 03:58:31;;;;;;;0.73;0.73;;;;;;;;;;10380554;28;20260;-75
2022/09/13 04:03:32;;;;;;;0.50;0.50;;;;;;;;;;10404230;28;20319;-76
2022/09/13 04:08:33;;;;;;;0.52;0.20;;;;;;;;;;10410277;28;20346;-75
2022/09/13 04:13:35;;;;;;;0.15;0.15;;;;;;;;;;10375284;28;20207;-75
2022/09/13 04:18:36;;;;;;;0.60;0.60;;;;;;;;;;10404940;28;20212;-75
2022/09/13 04:23:37;;;;;;;0.20;0.20;;;;;;;;;;10372440;28;20724;-76
2022/09/13 04:28:38;;;;;;;0.50;0.50;;;;;;;;;;10406530;28;20254;-76
2022/09/13 04:33:40;;;;;;;0.28;0.28;;;;;;;;;;10403668;28;20222;-75
2022/09/13 04:38:41;;;;;;;0.68;0.57;;;;;;;;;;10375150;28;20292;-76
2022/09/13 04:43:42;;;;;;;0.68;0.68;;;;;;;;;;10401991;28;20219;-76
2022/09/13 04:48:43;;;;;;;0.17;0.17;;;;;;;;;;10405986;28;20223;-75
2022/09/13 04:53:44;;;;;;;0.30;0.30;;;;;;;;;;10388252;28;20218;-76
2022/09/13 04:58:45;;;;;;;0.77;0.77;;;;;;;;;;10389656;28;20321;-74
2022/09/13 05:03:46;;;;;;;0.10;0.10;;;;;;;;;;10364238;28;21060;-75
2022/09/13 05:08:53;;;;;;;0.30;0.30;;;;;;;;;;10362307;28;20360;-75
2022/09/13 05:13:56;;;;;;;0.43;0.43;;;;;;;;;;10385047;28;20267;-74
2022/09/13 05:18:57;;;;;;;0.45;0.45;;;;;;;;;;10395274;28;20707;-74
2022/09/13 05:23:58;;;;;;;0.15;0.15;;;;;;;;;;10373475;28;20308;-75
2022/09/13 05:29:00;;;;;;;0.43;0.40;;;;;;;;;;10385147;28;20222;-75
2022/09/13 05:34:02;;;;;;;0.47;0.47;;;;;;;;;;10395229;28;20238;-75
2022/09/13 05:39:03;;;;;;;0.80;0.28;;;;;;;;;;10389720;28;20204;-75
2022/09/13 05:44:04;;;;;;;0.43;0.30;;;;;;;;;;10393254;28;20223;-75
2022/09/13 05:49:05;;;;;;;0.47;0.47;;;;;;;;;;10355944;28;20272;-75
2022/09/13 05:54:06;;;;;;;0.57;0.57;;;;;;;;;;10377991;28;20448;-75
2022/09/13 05:59:11;;;;;;;2.30;0.15;;;;;;;;;;10393706;28;20265;-75
2022/09/13 06:04:13;;;;;;;1.65;0.30;;;;;;;;;;10391450;28;20231;-76
2022/09/13 06:09:14;;;;;;;0.25;0.25;;;;;;;;;;10337660;28;20224;-75
2022/09/13 06:14:15;;;;;;;0.30;0.30;;;;;;;;;;10349595;28;20219;-76
2022/09/13 06:19:16;;;;;;;0.63;0.63;;;;;;;;;;10352290;28;20591;-75
2022/09/13 06:24:17;;;;;;;0.68;0.30;;;;;;;;;;10347387;28;20227;-75
2022/09/13 06:29:19;;;;;;;0.52;0.52;;;;;;;;;;10345424;28;20219;-76
2022/09/13 06:34:20;;;;;;;0.40;0.40;;;;;;;;;;10358200;28;20224;-76
2022/09/13 06:39:21;;;;;;;0.25;0.25;;;;;;;;;;10307553;28;20469;-76
2022/09/13 06:44:22;;;;;;;0.50;0.50;;;;;;;;;;10318868;28;20216;-76
2022/09/13 06:49:23;;;;;;;0.10;0.10;;;;;;;;;;10341469;28;20298;-76
2022/09/13 06:54:24;;;;;;;0.35;0.35;;;;;;;;;;10305310;28;20673;-75
2022/09/13 06:59:25;;;;;;;0.30;0.30;;;;;;;;;;10350988;28;20278;-76
2022/09/13 07:04:30;;;;;;;0.60;0.60;;;;;;;;;;10354999;28;20227;-75
2022/09/13 07:09:33;;;;;;;6.05;0.40;;;;;;;;;;10381069;28;20717;-76
2022/09/13 07:14:34;;;;;;;0.30;0.30;;;;;;;;;;10374718;28;20750;-76
2022/09/13 07:19:35;;;;;;;0.45;0.45;;;;;;;;;;10394263;28;20230;-75
2022/09/13 07:24:36;;;;;;;0.88;0.47;;;;;;;;;;10390995;28;20227;-77
2022/09/13 07:29:37;;;;;;;0.20;0.20;;;;;;;;;;10389011;28;20292;-75
2022/09/13 07:34:38;;;;;;;0.30;0.30;;;;;;;;;;10390283;28;20218;-77
2022/09/13 07:39:39;;;;;;;0.80;0.60;;;;;;;;;;10391162;28;20218;-76
2022/09/13 07:44:40;;;;;;;0.30;0.30;;;;;;;;;;10387441;28;20238;-76
2022/09/13 07:49:41;;;;;;;0.82;0.82;;;;;;;;;;10391518;28;20215;-76
2022/09/13 07:54:42;;;;;;;0.28;0.28;;;;;;;;;;10391621;28;20369;-76
2022/09/13 07:59:43;;;;;;;1.30;0.52;;;;;;;;;;10389356;28;20239;-75
2022/09/13 08:04:44;;;;;;;0.30;0.30;;;;;;;;;;10402878;28;20215;-76
2022/09/13 08:09:45;;;;;;;0.32;0.32;;;;;;;;;;10394229;28;20231;-75
2022/09/13 08:14:46;;;;;;;0.50;0.50;;;;;;;;;;10394972;28;20215;-76
2022/09/13 08:19:47;;;;;;;0.40;0.40;;;;;;;;;;10367261;28;20234;-76
2022/09/13 08:24:48;;;;;;;0.08;0.08;;;;;;;;;;10391206;28;20243;-77
2022/09/13 08:29:49;;;;;;;0.57;0.57;;;;;;;;;;10393956;28;20578;-76
2022/09/13 08:34:51;;;;;;;1.35;1.27;;;;;;;;;;10400964;28;20215;-77
2022/09/13 08:39:52;;;;;;;0.10;0.10;;;;;;;;;;10367301;28;20720;-76
2022/09/13 08:44:55;;;;;;;0.77;0.77;;;;;;;;;;10388729;28;20218;-77
2022/09/13 08:50:03;;;;;;;0.82;0.82;;;;;;;;;;10361799;28;20226;-76
2022/09/13 08:55:19;;;;;;;0.60;0.60;;;;;;;;;;10376125;28;20258;-77
2022/09/13 09:00:24;;;;;;;0.52;0.52;;;;;;;;;;10375296;28;21104;-76
2022/09/13 09:05:27;;;;;;;0.20;0.20;;;;;;;;;;10386316;28;20279;-78
2022/09/13 09:10:42;;;;;;;0.40;0.40;;;;;;;;;;10381440;28;20230;-75
2022/09/13 09:15:45;;;;;;;1.13;0.52;;;;;;;;;;10373004;28;20656;-77
2022/09/13 09:20:52;;;;;;;1.30;0.28;;;;;;;;;;10363497;28;20244;-75
2022/09/13 09:25:57;;;;;;;0.40;0.40;;;;;;;;;;10384617;28;20743;-75
2022/09/13 09:31:02;;;;;;;0.25;0.25;;;;;;;;;;10383962;28;20273;-76
2022/09/13 09:36:28;;;;;;;0.57;0.57;;;;;;;;;;10390595;28;20249;-80
2022/09/13 09:41:31;;;;;;;1.52;0.28;;;;;;;;;;10390642;28;20211;-79
2022/09/13 09:46:35;;;;;;;4.32;0.70;;;;;;;;;;10394562;28;20223;-79
2022/09/13 09:51:36;;;;;;;1.27;0.57;;;;;;;;;;10412662;28;20686;-79
2022/09/13 09:56:51;;;;;;;0.70;0.70;;;;;;;;;;10396401;28;20245;-78
2022/09/13 10:01:54;;;;;;;0.10;0.10;;;;;;;;;;10371556;28;20877;-79
2022/09/13 10:07:19;;;;;;;0.40;0.40;;;;;;;;;;10410257;28;20234;-79
2022/09/13 10:12:26;;;;;;;0.70;0.70;;;;;;;;;;10384972;28;20443;-77
2022/09/13 10:17:28;;;;;;;0.65;0.10;;;;;;;;;;10394534;28;20655;-78
2022/09/13 10:22:31;;;;;;;0.10;0.10;;;;;;;;;;10383083;28;20314;-77
2022/09/13 10:27:35;;;;;;;0.13;0.13;;;;;;;;;;10382629;28;20211;-78
2022/09/13 10:32:36;;;;;;;1.65;0.52;;;;;;;;;;10390568;28;20226;-78
2022/09/13 10:37:41;;;;;;;0.20;0.20;;;;;;;;;;10369819;28;20629;-77
2022/09/13 10:42:50;;;;;;;0.55;0.30;;;;;;;;;;10390572;28;20214;-78
2022/09/13 10:47:53;;;;;;;0.52;0.52;;;;;;;;;;10403994;28;20829;-78
2022/09/13 10:52:55;;;;;;;0.22;0.22;;;;;;;;;;10373547;28;20219;-78
2022/09/13 10:58:02;;;;;;;0.25;0.25;;;;;;;;;;10401471;28;20238;-78
2022/09/13 11:03:22;;;;;;;0.20;0.20;;;;;;;;;;10403926;28;20207;-77
2022/09/13 11:08:42;;;;;;;2.58;0.15;;;;;;;;;;10385103;28;20230;-77
2022/09/13 11:13:52;;;;;;;0.20;0.20;;;;;;;;;;10402209;28;20219;-78
2022/09/13 11:19:16;;;;;;;0.40;0.40;;;;;;;;;;10403592;28;20213;-78
2022/09/13 11:24:39;;;;;;;1.85;0.65;;;;;;;;;;10369318;28;20215;-78
2022/09/13 11:29:40;;;;;;;0.63;0.63;;;;;;;;;;10394069;28;20623;-77
2022/09/13 11:34:53;;;;;;;0.50;0.50;;;;;;;;;;10400798;28;20225;-78
2022/09/13 11:40:13;;;;;;;0.88;0.60;;;;;;;;;;10393555;28;20212;-78
2022/09/13 11:45:21;;;;;;;0.47;0.47;;;;;;;;;;10379901;28;20215;-78
2022/09/13 11:50:28;;;;;;;0.73;0.38;;;;;;;;;;10364135;28;20187;-78
2022/09/13 11:55:35;;;;;;;0.73;0.73;;;;;;;;;;10388291;28;20227;-78
2022/09/13 12:00:40;;;;;;;0.60;0.60;;;;;;;;;;10390314;28;20222;-77
2022/09/13 12:05:48;;;;;;;0.20;0.20;;;;;;;;;;10390133;28;20326;-78
2022/09/13 12:11:07;;;;;;;0.15;0.15;;;;;;;;;;10388571;28;20231;-78
2022/09/13 12:16:10;;;;;;;0.40;0.40;;;;;;;;;;10402093;28;20222;-78
2022/09/13 12:21:14;;;;;;;0.30;0.30;;;;;;;;;;10399253;28;20281;-77
2022/09/13 12:26:19;;;;;;;0.30;0.30;;;;;;;;;;10382460;28;20218;-77
2022/09/13 12:31:25;;;;;;;0.30;0.30;;;;;;;;;;10384477;28;20314;-77
2022/09/13 12:36:39;;;;;;;1.70;0.90;;;;;;;;;;10391134;28;20223;-77
2022/09/13 12:41:58;;;;;;;0.35;0.35;;;;;;;;;;10360932;28;20228;-78
2022/09/13 12:47:09;;;;;;;0.65;0.65;;;;;;;;;;10365125;28;20239;-76
2022/09/13 12:52:14;;;;;;;0.10;0.10;;;;;;;;;;10364988;28;20219;-77
2022/09/13 12:57:30;;;;;;;1.10;0.88;;;;;;;;;;10376640;28;20222;-76
2022/09/13 13:02:44;;;;;;;0.70;0.70;;;;;;;;;;10388450;28;20295;-77
2022/09/13 13:07:50;;;;;;;2.38;0.30;;;;;;;;;;10386375;28;20232;-75
2022/09/13 13:12:52;;;;;;;0.32;0.32;;;;;;;;;;10365165;28;20207;-76
2022/09/13 13:17:53;;;;;;;0.50;0.50;;;;;;;;;;10382018;28;20881;-77
2022/09/13 13:23:04;;;;;;;0.52;0.52;;;;;;;;;;10382379;28;20223;-78
2022/09/13 13:28:23;;;;;;;15.45;0.85;;;;;;;;;;10395379;28;20216;-77
2022/09/13 13:33:27;;;;;;;0.40;0.40;;;;;;;;;;10397702;28;20761;-75
2022/09/13 13:38:28;;;;;;;0.70;0.70;;;;;;;;;;10385690;28;20219;-76
2022/09/13 13:43:33;;;;;;;0.77;0.55;;;;;;;;;;10364639;28;20219;-77
2022/09/13 13:48:36;;;;;;;3.45;0.50;;;;;;;;;;10399697;28;20206;-79
2022/09/13 13:53:37;;;;;;;0.30;0.30;;;;;;;;;;10398381;28;20224;-78
2022/09/13 13:58:56;;;;;;;0.50;0.50;;;;;;;;;;10401869;28;20205;-78
2022/09/13 14:04:16;;;;;;;1.00;0.30;;;;;;;;;;10405612;28;20215;-78
2022/09/13 14:09:26;;;;;;;0.98;0.63;;;;;;;;;;10383037;28;20230;-78
2022/09/13 14:14:46;;;;;;;1.25;0.35;;;;;;;;;;10357319;28;20212;-78
2022/09/13 14:19:48;;;;;;;0.47;0.40;;;;;;;;;;10395666;28;20633;-77
2022/09/13 14:24:54;;;;;;;1.88;0.75;;;;;;;;;;10390004;28;20702;-78
2022/09/13 14:30:00;;;;;;;0.80;0.80;;;;;;;;;;10354979;28;20211;-78
2022/09/13 14:35:03;;;;;;;1.38;1.30;;;;;;;;;;10387583;28;20230;-78
2022/09/13 14:40:07;;;;;;;0.63;0.63;;;;;;;;;;10410013;28;20782;-78
2022/09/13 14:45:15;;;;;;;0.68;0.68;;;;;;;;;;10387856;28;20520;-77
2022/09/13 14:50:22;;;;;;;2.40;0.10;;;;;;;;;;10377616;28;20283;-77
2022/09/13 14:55:26;;;;;;;0.30;0.30;;;;;;;;;;10389981;28;20204;-77
2022/09/13 15:00:27;;;;;;;0.50;0.47;;;;;;;;;;10382653;28;20586;-77
2022/09/13 15:05:32;;;;;;;0.32;0.32;;;;;;;;;;10376425;28;20207;-77
2022/09/13 15:10:42;;;;;;;0.30;0.30;;;;;;;;;;10356218;28;20798;-77
2022/09/13 15:15:46;;;;;;;0.70;0.70;;;;;;;;;;10378314;28;20254;-77
2022/09/13 15:20:58;;;;;;;1.55;0.73;;;;;;;;;;10351076;28;20325;-77
2022/09/13 15:26:05;;;;;;;1.10;0.60;;;;;;;;;;10354109;28;20256;-78
2022/09/13 15:31:07;;;;;;;1.40;0.82;;;;;;;;;;10399938;28;20237;-79
2022/09/13 15:36:16;;;;;;;1.65;0.85;;;;;;;;;;10365722;28;20214;-77
2022/09/13 15:41:20;;;;;;;0.68;0.68;;;;;;;;;;10388372;28;20245;-78
2022/09/13 15:46:21;;;;;;;0.38;0.38;;;;;;;;;;10372119;28;20214;-77
2022/09/13 15:51:23;;;;;;;0.50;0.40;;;;;;;;;;10370281;28;20215;-78
2022/09/13 15:56:28;;;;;;;0.40;0.40;;;;;;;;;;10401445;28;20210;-78
2022/09/13 16:01:29;;;;;;;0.85;0.85;;;;;;;;;;10390863;28;20583;-78
2022/09/13 16:06:30;;;;;;;2.05;0.63;;;;;;;;;;10350258;28;20223;-79
2022/09/13 16:11:31;;;;;;;1.13;0.50;;;;;;;;;;10384110;28;20222;-80
2022/09/13 16:16:32;;;;;;;0.57;0.57;;;;;;;;;;10354669;28;20277;-80
2022/09/13 16:21:41;;;;;;;0.70;0.70;;;;;;;;;;10394710;28;20209;-79
2022/09/13 16:26:42;;;;;;;3.40;0.30;;;;;;;;;;10397163;28;20706;-79
2022/09/13 16:31:43;;;;;;;0.90;0.45;;;;;;;;;;10374480;28;20210;-80
2022/09/13 16:36:44;;;;;;;0.70;0.70;;;;;;;;;;10361008;28;20919;-79
2022/09/13 16:41:45;;;;;;;0.50;0.50;;;;;;;;;;10389363;28;20218;-80
2022/09/13 16:46:46;;;;;;;0.38;0.38;;;;;;;;;;10396354;28;20218;-79
2022/09/13 16:51:47;;;;;;;0.73;0.73;;;;;;;;;;10390861;28;20211;-80
2022/09/13 16:56:48;;;;;;;0.40;0.40;;;;;;;;;;10390596;28;20525;-79
2022/09/13 17:01:50;;;;;;;0.40;0.40;;;;;;;;;;10427834;28;20206;-79
2022/09/13 17:06:51;;;;;;;0.47;0.47;;;;;;;;;;10414671;28;20262;-80
2022/09/13 17:11:52;;;;;;;1.25;0.50;;;;;;;;;;10384750;28;20215;-80
2022/09/13 17:16:54;;;;;;;0.45;0.45;;;;;;;;;;10421256;28;20219;-79
2022/09/13 17:21:56;;;;;;;0.98;0.98;;;;;;;;;;10441013;28;20210;-79
2022/09/13 17:26:58;;;;;;;0.60;0.60;;;;;;;;;;10434337;28;20216;-78
2022/09/13 17:31:59;;;;;;;1.35;0.20;;;;;;;;;;10431334;28;20211;-79
2022/09/13 17:37:02;;;;;;;0.20;0.20;;;;;;;;;;10441093;28;20223;-79
2022/09/13 17:42:03;;;;;;;0.30;0.30;;;;;;;;;;10405704;28;20216;-79
2022/09/13 17:47:05;;;;;;;0.30;0.30;;;;;;;;;;10434348;28;20226;-79
2022/09/13 17:52:06;;;;;;;0.10;0.10;;;;;;;;;;10434371;28;20847;-79
2022/09/13 17:57:10;;;;;;;0.88;0.80;;;;;;;;;;10421208;28;20242;-79
2022/09/13 18:02:11;;;;;;;0.15;0.15;;;;;;;;;;10402015;28;20277;-79
2022/09/13 18:07:12;;;;;;;0.10;0.10;;;;;;;;;;10419081;28;20342;-79
2022/09/13 18:12:13;;;;;;;0.88;0.20;;;;;;;;;;10428436;28;20206;-78
2022/09/13 18:17:14;;;;;;;0.10;0.10;;;;;;;;;;10425293;28;20286;-81
2022/09/13 18:22:15;;;;;;;0.15;0.15;;;;;;;;;;10405855;28;20322;-79
2022/09/13 18:27:17;;;;;;;0.77;0.77;;;;;;;;;;10418604;28;20561;-78
2022/09/13 18:32:18;;;;;;;16.25;0.30;;;;;;;;;;10413472;28;20214;-77
2022/09/13 18:37:19;;;;;;;0.10;0.10;;;;;;;;;;10437351;28;20219;-77
2022/09/13 18:42:20;;;;;;;0.50;0.50;;;;;;;;;;10416050;28;20589;-78
2022/09/13 18:47:21;;;;;;;0.15;0.10;;;;;;;;;;10428980;28;20234;-78
2022/09/13 18:52:22;;;;;;;0.30;0.30;;;;;;;;;;10438928;28;20222;-78
2022/09/13 18:57:23;;;;;;;8.68;0.20;;;;;;;;;;10434990;28;20223;-78
2022/09/13 19:02:24;;;;;;;0.10;0.10;;;;;;;;;;10428929;28;20230;-77
2022/09/13 19:07:25;;;;;;;0.13;0.13;;;;;;;;;;10422756;28;20223;-77
2022/09/13 19:12:26;;;;;;;0.00;0.00;;;;;;;;;;10409649;28;20230;-78
2022/09/13 19:17:27;;;;;;;0.20;0.20;;;;;;;;;;10362012;28;20575;-77
2022/09/13 19:22:28;;;;;;;0.10;0.10;;;;;;;;;;10421718;28;20255;-78
2022/09/13 19:27:29;;;;;;;0.20;0.20;;;;;;;;;;10363354;28;20305;-78
2022/09/13 19:32:30;;;;;;;0.10;0.10;;;;;;;;;;10408072;28;20216;-78
2022/09/13 19:37:31;;;;;;;0.13;0.13;;;;;;;;;;10401704;28;20238;-78
2022/09/13 19:42:32;;;;;;;0.25;0.25;;;;;;;;;;10372276;28;20215;-78
2022/09/13 19:47:34;;;;;;;0.10;0.10;;;;;;;;;;10410649;28;20210;-78
2022/09/13 19:52:35;;;;;;;4.22;0.32;;;;;;;;;;10403518;28;20208;-77
2022/09/13 19:57:36;;;;;;;0.03;0.03;;;;;;;;;;10402582;28;20215;-77
2022/09/13 20:02:37;;;;;;;0.17;0.17;;;;;;;;;;10410598;28;20874;-77
2022/09/13 20:07:38;;;;;;;0.17;0.17;;;;;;;;;;10402098;28;20227;-78
2022/09/13 20:12:39;;;;;;;0.10;0.10;;;;;;;;;;10402952;28;20215;-76
2022/09/13 20:17:40;;;;;;;0.00;0.00;;;;;;;;;;10407729;28;20219;-77
2022/09/13 20:22:41;;;;;;;0.10;0.10;;;;;;;;;;10408186;28;20218;-77
2022/09/13 20:27:42;;;;;;;0.13;0.13;;;;;;;;;;10406609;28;20215;-77
2022/09/13 20:32:46;;;;;;;0.28;0.28;;;;;;;;;;10416565;28;20245;-78
2022/09/13 20:37:47;;;;;;;0.10;0.10;;;;;;;;;;10415781;28;20249;-78
2022/09/13 20:42:48;;;;;;;0.10;0.10;;;;;;;;;;10408794;28;20974;-78
2022/09/13 20:47:49;;;;;;;0.00;0.00;;;;;;;;;;10400536;28;20594;-77
2022/09/13 20:52:51;;;;;;;1.60;0.30;;;;;;;;;;10394544;28;20215;-77
2022/09/13 20:57:52;;;;;;;0.10;0.10;;;;;;;;;;10409153;28;20903;-78
2022/09/13 21:02:53;;;;;;;2.40;0.35;;;;;;;;;;10415902;28;20276;-78
2022/09/13 21:13:14;;;;;;;0.65;0.35;;;;;;;;;;10414545;28;20230;-77
2022/09/13 21:18:16;;;;;;;0.10;0.10;;;;;;;;;;10416132;28;20267;-77
2022/09/13 21:23:17;;;;;;;0.00;0.00;;;;;;;;;;10418402;28;21076;-79
2022/09/13 21:28:18;;;;;;;6.05;0.80;;;;;;;;;;10399272;28;20215;-78
2022/09/13 21:33:19;;;;;;;3.63;1.10;;;;;;;;;;10396407;28;20234;-78
2022/09/13 21:38:20;;;;;;;0.20;0.20;;;;;;;;;;10409062;28;20906;-77
2022/09/13 21:43:21;;;;;;;0.10;0.10;;;;;;;;;;10410773;28;20223;-76
2022/09/13 21:48:23;;;;;;;0.30;0.20;;;;;;;;;;10445843;28;20207;-77
2022/09/13 21:53:24;;;;;;;0.00;0.00;;;;;;;;;;10398228;28;20218;-78
2022/09/13 21:58:25;;;;;;;0.10;0.10;;;;;;;;;;10417743;28;20280;-79
2022/09/13 22:03:26;;;;;;;0.17;0.17;;;;;;;;;;10389494;28;20272;-78
2022/09/13 22:08:30;;;;;;;0.10;0.10;;;;;;;;;;10412450;28;20219;-77
2022/09/13 22:13:32;;;;;;;0.00;0.00;;;;;;;;;;10418635;28;20238;-77
2022/09/13 22:18:33;;;;;;;0.00;0.00;;;;;;;;;;10409275;28;20291;-78
2022/09/13 22:23:35;;;;;;;0.35;0.25;;;;;;;;;;10408993;28;20215;-77
2022/09/13 22:28:36;;;;;;;0.00;0.00;;;;;;;;;;10413734;28;20232;-79
2022/09/13 22:33:37;;;;;;;0.00;0.00;;;;;;;;;;10409148;28;20287;-77
2022/09/13 22:38:39;;;;;;;0.32;0.32;;;;;;;;;;10409612;28;20285;-77
2022/09/13 22:43:40;;;;;;;0.47;0.47;;;;;;;;;;10413725;28;20765;-77
2022/09/13 22:48:42;;;;;;;0.00;0.00;;;;;;;;;;10390970;28;20651;-77
2022/09/13 22:53:44;;;;;;;0.00;0.00;;;;;;;;;;10381063;28;20223;-78
2022/09/13 22:58:45;;;;;;;0.08;0.08;;;;;;;;;;10412465;28;20230;-77
2022/09/13 23:03:47;;;;;;;0.10;0.10;;;;;;;;;;10378084;28;20220;-76
2022/09/13 23:08:48;;;;;;;0.10;0.10;;;;;;;;;;10412332;28;20224;-77
2022/09/13 23:13:50;;;;;;;0.00;0.00;;;;;;;;;;10411800;28;20218;-77
2022/09/13 23:18:51;;;;;;;0.15;0.15;;;;;;;;;;10407370;28;20230;-78
2022/09/13 23:23:53;;;;;;;0.00;0.00;;;;;;;;;;10359017;28;20702;-77
2022/09/13 23:28:55;;;;;;;0.10;0.10;;;;;;;;;;10404437;28;21131;-78
2022/09/13 23:33:58;;;;;;;0.00;0.00;;;;;;;;;;10400582;28;20219;-77
2022/09/13 23:39:02;;;;;;;0.22;0.10;;;;;;;;;;10401852;28;20218;-77
2022/09/13 23:44:03;;;;;;;0.10;0.10;;;;;;;;;;10410040;28;20212;-77
2022/09/13 23:49:05;;;;;;;0.10;0.10;;;;;;;;;;10404338;28;20702;-77
2022/09/13 23:54:06;;;;;;;0.10;0.10;;;;;;;;;;10405919;28;20211;-77
2022/09/13 23:59:07;;;;;;;0.05;0.05;;;;;;;;;;10391737;28;20231;-77
